Time;durP1;ratioP1;P1;durP2;ratioP2;P2;SDS_P1;SDS_P2;PMS_P1;PMS_P2;Temp;Humidity;BMP_temperature;BMP_pressure;BME280_temperature;BME280_humidity;BME280_pressure;Samples;Min_cycle;Max_cycle;Signal;HPM_P1;HPM_P2
2022/04/05 00:00:24;;;;;;;7.43;6.73;;;;;;;6.73;79.14;99843.75;5077205;28;20298;-57
2022/04/05 00:02:50;;;;;;;7.70;6.93;;;;;;;6.74;79.21;99852.28;5061880;28;20213;-56
2022/04/05 00:05:17;;;;;;;8.27;6.90;;;;;;;6.68;80.11;99845.44;5065351;28;20234;-58
2022/04/05 00:07:43;;;;;;;7.67;6.97;;;;;;;6.70;79.64;99844.59;5061630;28;20230;-57
2022/04/05 00:10:08;;;;;;;8.17;7.37;;;;;;;6.67;80.00;99854.00;5061080;28;20674;-58
2022/04/05 00:12:34;;;;;;;7.43;6.73;;;;;;;6.68;79.83;99848.00;5061592;28;20188;-57
2022/04/05 00:14:59;;;;;;;8.00;7.23;;;;;;;6.66;80.10;99850.59;5061143;28;20219;-58
2022/04/05 00:17:24;;;;;;;7.57;6.87;;;;;;;6.66;80.57;99853.16;5054222;28;20196;-57
2022/04/05 00:19:50;;;;;;;7.00;6.30;;;;;;;6.66;80.43;99845.47;5057838;28;20365;-58
2022/04/05 00:22:15;;;;;;;7.47;6.73;;;;;;;6.62;80.54;99846.31;5059961;28;20192;-59
2022/04/05 00:24:40;;;;;;;8.40;6.97;;;;;;;6.65;80.46;99837.75;5056998;28;20183;-56
2022/04/05 00:27:06;;;;;;;7.73;6.97;;;;;;;6.67;80.30;99841.16;5060812;28;20201;-58
2022/04/05 00:29:31;;;;;;;7.73;7.03;;;;;;;6.69;80.08;99826.59;5060848;28;20206;-57
2022/04/05 00:31:56;;;;;;;8.70;7.20;;;;;;;6.69;80.23;99822.31;5060440;28;20229;-57
2022/04/05 00:34:25;;;;;;;8.60;7.70;;;;;;;6.67;80.50;99823.16;5061206;28;20268;-57
2022/04/05 00:36:53;;;;;;;7.70;6.90;;;;;;;6.67;80.39;99806.03;5060947;28;20217;-57
2022/04/05 00:39:20;;;;;;;7.70;7.00;;;;;;;6.69;80.35;99809.47;5056433;28;20215;-57
2022/04/05 00:41:47;;;;;;;7.57;6.87;;;;;;;6.71;80.08;99799.16;5061356;28;20243;-58
2022/04/05 00:44:12;;;;;;;7.93;6.73;;;;;;;6.68;80.83;99801.72;5061173;28;20561;-59
2022/04/05 00:46:38;;;;;;;7.37;6.67;;;;;;;6.68;80.55;99804.31;5057261;28;20191;-58
2022/04/05 00:49:04;;;;;;;8.60;7.17;;;;;;;6.64;80.71;99806.03;5065376;28;20208;-58
2022/04/05 00:51:29;;;;;;;7.43;6.73;;;;;;;6.66;80.84;99806.00;5057731;28;20186;-57
2022/04/05 00:54:00;;;;;;;7.43;6.73;;;;;;;6.64;80.79;99800.03;5061332;28;20245;-58
2022/04/05 00:56:26;;;;;;;7.40;6.47;;;;;;;6.63;81.00;99798.31;5058557;28;20199;-59
2022/04/05 00:58:53;;;;;;;7.53;6.93;;;;;;;6.62;81.54;99805.16;5056317;28;20210;-58
2022/04/05 01:01:21;;;;;;;8.30;7.50;;;;;;;6.64;82.20;99808.59;5058242;28;20188;-58
2022/04/05 01:03:49;;;;;;;7.67;6.97;;;;;;;6.64;82.81;99805.19;5055063;28;20973;-58
2022/04/05 01:06:22;;;;;;;8.40;6.90;;;;;;;6.67;83.33;99800.00;5058227;28;20228;-58
2022/04/05 01:08:48;;;;;;;6.93;6.23;;;;;;;6.62;83.84;99802.59;5057061;28;20276;-58
2022/04/05 01:11:14;;;;;;;7.73;7.03;;;;;;;6.63;83.78;99803.47;5053721;28;20660;-58
2022/04/05 01:13:40;;;;;;;8.33;7.33;;;;;;;6.60;83.25;99798.31;5060769;28;20231;-59
2022/04/05 01:16:06;;;;;;;8.07;7.33;;;;;;;6.64;82.61;99802.59;5078752;28;20183;-58
2022/04/05 01:18:33;;;;;;;7.57;6.87;;;;;;;6.65;82.77;99791.47;5054997;28;20751;-58
2022/04/05 01:20:59;;;;;;;8.33;7.17;;;;;;;6.63;83.11;99791.44;5059552;28;20186;-58
2022/04/05 01:23:24;;;;;;;8.10;7.30;;;;;;;6.59;83.98;99794.88;5070783;28;20253;-57
2022/04/05 01:25:51;;;;;;;7.13;6.53;;;;;;;6.60;84.07;99791.44;5071614;28;20182;-58
2022/04/05 01:28:17;;;;;;;10.13;7.67;;;;;;;6.58;84.58;99788.00;5063459;28;20587;-57
2022/04/05 01:30:42;;;;;;;8.60;7.77;;;;;;;6.59;85.20;99794.88;5061644;28;20217;-58
2022/04/05 01:33:07;;;;;;;7.97;7.10;;;;;;;6.57;85.50;99794.03;5054205;28;20266;-58
2022/04/05 01:35:34;;;;;;;7.57;6.77;;;;;;;6.51;85.87;99787.16;5053273;28;20241;-59
2022/04/05 01:38:02;;;;;;;7.30;6.60;;;;;;;6.50;86.61;99789.75;5056851;28;20565;-58
2022/04/05 01:40:28;;;;;;;7.53;6.80;;;;;;;6.47;86.80;99774.31;5054076;28;20221;-59
2022/04/05 01:42:53;;;;;;;8.33;7.53;;;;;;;6.50;85.96;99782.91;5056019;28;20216;-57
2022/04/05 01:45:19;;;;;;;8.30;7.37;;;;;;;6.49;85.89;99770.03;5079407;28;20178;-60
2022/04/05 01:47:44;;;;;;;7.70;6.93;;;;;;;6.47;86.15;99775.19;5062187;28;20181;-58
2022/04/05 01:50:09;;;;;;;7.47;6.63;;;;;;;6.47;85.88;99766.59;5054896;28;20725;-58
2022/04/05 01:52:35;;;;;;;7.67;6.90;;;;;;;6.47;85.81;99774.31;5069397;28;20184;-60
2022/04/05 01:55:01;;;;;;;8.20;7.40;;;;;;;6.47;84.93;99770.06;5058309;28;20222;-58
2022/04/05 01:57:26;;;;;;;7.93;7.20;;;;;;;6.43;85.45;99775.19;5057928;28;20210;-57
2022/04/05 01:59:52;;;;;;;7.60;6.90;;;;;;;6.44;85.10;99766.59;5056534;28;20580;-58
2022/04/05 02:02:17;;;;;;;7.27;6.57;;;;;;;6.43;84.94;99763.19;5054405;28;20190;-59
2022/04/05 02:04:42;;;;;;;7.53;6.80;;;;;;;6.46;84.91;99749.47;5057413;28;20179;-58
2022/04/05 02:07:13;;;;;;;7.30;6.60;;;;;;;6.45;84.52;99755.47;5056815;28;20195;-58
2022/04/05 02:09:39;;;;;;;8.13;7.33;;;;;;;6.42;84.69;99755.50;5055139;28;20384;-57
2022/04/05 02:12:05;;;;;;;7.63;6.93;;;;;;;6.39;84.61;99754.63;5057436;28;20699;-58
2022/04/05 02:14:30;;;;;;;8.17;6.50;;;;;;;6.44;84.49;99759.75;5054855;28;20204;-57
2022/04/05 02:16:56;;;;;;;8.13;6.43;;;;;;;6.46;83.62;99752.91;5054696;28;20197;-59
2022/04/05 02:19:22;;;;;;;6.63;6.00;;;;;;;6.44;83.97;99748.63;5058208;28;21036;-57
2022/04/05 02:21:47;;;;;;;7.17;6.43;;;;;;;6.48;83.67;99750.31;5060279;28;20187;-58
2022/04/05 02:24:13;;;;;;;7.97;6.70;;;;;;;6.46;84.09;99757.19;5054601;28;20198;-58
2022/04/05 02:26:41;;;;;;;10.77;6.93;;;;;;;6.45;84.04;99758.03;5054135;28;20907;-58
2022/04/05 02:29:06;;;;;;;6.90;6.20;;;;;;;6.45;83.94;99765.75;5054629;28;20202;-58
2022/04/05 02:31:32;;;;;;;7.27;6.30;;;;;;;6.50;83.64;99758.91;5061970;28;20250;-57
2022/04/05 02:33:58;;;;;;;7.47;6.77;;;;;;;6.51;83.04;99758.88;5055739;28;20439;-57
2022/04/05 02:36:23;;;;;;;7.50;6.77;;;;;;;6.53;82.48;99769.19;5059818;28;20240;-61
2022/04/05 02:38:49;;;;;;;7.50;6.80;;;;;;;6.51;82.57;99769.16;5054506;28;20216;-60
2022/04/05 02:41:14;;;;;;;7.20;6.50;;;;;;;6.50;82.80;99777.78;5058846;28;20193;-59
2022/04/05 02:43:40;;;;;;;6.90;6.30;;;;;;;6.52;82.51;99777.75;5059623;28;20273;-57
2022/04/05 02:46:08;;;;;;;6.80;6.10;;;;;;;6.52;82.29;99765.75;5063824;28;20211;-59
2022/04/05 02:48:34;;;;;;;6.97;6.37;;;;;;;6.54;81.95;99765.75;5056650;28;20209;-57
2022/04/05 02:50:59;;;;;;;7.60;6.90;;;;;;;6.62;81.78;99758.03;5056809;28;20187;-58
2022/04/05 02:53:25;;;;;;;6.80;6.20;;;;;;;6.55;81.66;99770.88;5055599;28;20189;-58
2022/04/05 02:55:51;;;;;;;8.33;6.50;;;;;;;6.58;80.96;99762.31;5065560;28;20231;-57
2022/04/05 02:58:16;;;;;;;7.10;6.40;;;;;;;6.57;80.94;99755.47;5051357;28;20202;-57
2022/04/05 03:00:41;;;;;;;6.97;6.10;;;;;;;6.54;81.33;99760.63;5054989;28;20202;-58
2022/04/05 03:03:07;;;;;;;8.17;7.37;;;;;;;6.56;81.22;99758.91;5057331;28;20221;-58
2022/04/05 03:05:32;;;;;;;6.20;5.63;;;;;;;6.58;80.87;99764.88;5054468;28;20190;-58
2022/04/05 03:07:58;;;;;;;7.00;6.40;;;;;;;6.52;81.22;99773.47;5056763;28;20182;-58
2022/04/05 03:10:24;;;;;;;8.53;6.57;;;;;;;6.54;81.49;99781.19;5054911;28;20231;-58
2022/04/05 03:12:50;;;;;;;7.50;5.90;;;;;;;6.59;81.19;99774.31;5055665;28;20862;-57
2022/04/05 03:15:16;;;;;;;7.70;6.90;;;;;;;6.56;81.61;99766.63;5058579;28;20201;-58
2022/04/05 03:17:43;;;;;;;6.83;5.97;;;;;;;6.59;81.66;99774.31;5053745;28;20187;-57
2022/04/05 03:20:12;;;;;;;8.50;6.67;;;;;;;6.58;81.79;99787.19;5059643;28;20203;-57
2022/04/05 03:22:41;;;;;;;6.73;5.90;;;;;;;6.61;82.38;99785.44;5053453;28;20183;-59
2022/04/05 03:25:06;;;;;;;7.57;6.20;;;;;;;6.60;83.56;99781.16;5069095;28;20180;-60
2022/04/05 03:27:32;;;;;;;6.73;6.13;;;;;;;6.59;84.05;99786.31;5056039;28;20249;-58
2022/04/05 03:29:57;;;;;;;7.90;7.10;;;;;;;6.60;85.42;99781.16;5058516;28;20227;-57
2022/04/05 03:32:22;;;;;;;7.20;6.50;;;;;;;6.53;85.82;99785.47;5057205;28;20655;-59
2022/04/05 03:34:50;;;;;;;7.27;6.27;;;;;;;6.49;85.94;99778.63;5057154;28;20645;-58
2022/04/05 03:37:15;;;;;;;6.60;6.00;;;;;;;6.50;86.93;99784.59;5055615;28;20191;-58
2022/04/05 03:39:41;;;;;;;7.00;6.33;;;;;;;6.51;87.76;99792.31;5071453;28;20263;-58
2022/04/05 03:42:06;;;;;;;8.07;7.20;;;;;;;6.47;88.72;99782.91;5061090;28;20183;-58
2022/04/05 03:44:32;;;;;;;7.80;7.10;;;;;;;6.44;90.47;99790.63;5062841;28;20648;-58
2022/04/05 03:46:57;;;;;;;8.73;7.43;;;;;;;6.40;91.19;99782.06;5062305;28;20192;-60
2022/04/05 03:49:23;;;;;;;7.47;6.77;;;;;;;6.37;92.34;99782.03;5072330;28;20241;-60
2022/04/05 03:51:48;;;;;;;8.77;7.93;;;;;;;6.32;93.18;99773.47;5060137;28;20208;-58
2022/04/05 03:54:14;;;;;;;8.87;8.07;;;;;;;6.28;93.30;99770.91;5058277;28;20206;-58
2022/04/05 03:56:39;;;;;;;8.20;7.40;;;;;;;6.27;93.40;99769.19;5057725;28;20194;-57
2022/04/05 03:59:04;;;;;;;8.13;7.30;;;;;;;6.23;93.28;99773.47;5065258;28;20213;-59
2022/04/05 04:01:30;;;;;;;8.20;7.40;;;;;;;6.17;93.65;99776.91;5058624;28;20282;-56
2022/04/05 04:03:55;;;;;;;8.57;7.77;;;;;;;6.14;94.20;99778.59;5061708;28;20214;-58
2022/04/05 04:06:20;;;;;;;8.40;7.63;;;;;;;6.12;94.30;99760.63;5054210;28;20709;-57
2022/04/05 04:08:46;;;;;;;9.20;8.27;;;;;;;6.09;94.46;99766.63;5054380;28;20806;-57
2022/04/05 04:11:11;;;;;;;9.33;8.00;;;;;;;6.08;95.28;99776.88;5058634;28;20248;-57
2022/04/05 04:13:37;;;;;;;8.90;7.90;;;;;;;6.00;96.20;99776.88;5062845;28;20199;-57
2022/04/05 04:16:04;;;;;;;9.97;7.67;;;;;;;6.03;96.25;99770.91;5059756;28;20631;-57
2022/04/05 04:18:30;;;;;;;8.67;7.87;;;;;;;5.97;96.32;99776.84;5060895;28;20800;-58
2022/04/05 04:20:55;;;;;;;8.33;7.50;;;;;;;5.92;96.73;99765.69;5059400;28;20198;-57
2022/04/05 04:23:21;;;;;;;8.67;7.77;;;;;;;5.90;96.54;99752.84;5061324;28;20178;-58
2022/04/05 04:25:46;;;;;;;8.73;7.93;;;;;;;5.90;96.44;99772.53;5061457;28;20181;-56
2022/04/05 04:28:11;;;;;;;9.03;8.23;;;;;;;5.89;96.89;99765.69;5060703;28;20209;-60
2022/04/05 04:30:38;;;;;;;10.57;7.60;;;;;;;5.93;96.85;99759.72;5060528;28;20279;-57
2022/04/05 04:33:05;;;;;;;8.73;7.83;;;;;;;5.85;96.43;99748.56;5060552;28;20542;-57
2022/04/05 04:35:31;;;;;;;9.40;8.17;;;;;;;5.80;97.29;99748.56;5061567;28;20302;-56
2022/04/05 04:37:58;;;;;;;9.97;8.33;;;;;;;5.85;97.17;99740.84;5061005;28;20652;-56
2022/04/05 04:40:24;;;;;;;9.07;7.77;;;;;;;5.81;97.61;99742.56;5059754;28;20191;-57
2022/04/05 04:42:50;;;;;;;8.87;8.07;;;;;;;5.80;97.65;99745.97;5057331;28;20623;-58
2022/04/05 04:45:16;;;;;;;9.03;8.13;;;;;;;5.82;97.91;99754.56;5056273;28;20185;-57
2022/04/05 04:47:41;;;;;;;9.47;8.57;;;;;;;5.75;98.71;99763.97;5057742;28;20664;-58
2022/04/05 04:50:08;;;;;;;11.03;8.77;;;;;;;5.71;99.49;99754.53;5058649;28;20203;-57
2022/04/05 04:52:34;;;;;;;8.70;7.90;;;;;;;5.74;99.30;99751.13;5056527;28;20191;-59
2022/04/05 04:54:59;;;;;;;11.13;8.67;;;;;;;5.74;99.15;99751.97;5061151;28;20676;-58
2022/04/05 04:57:25;;;;;;;9.10;8.20;;;;;;;5.67;99.38;99751.94;5057655;28;20183;-56
2022/04/05 04:59:52;;;;;;;10.17;8.80;;;;;;;5.70;99.53;99760.50;5075117;28;20639;-58
2022/04/05 05:02:17;;;;;;;9.77;8.83;;;;;;;5.69;99.93;99768.22;5065424;28;20186;-59
2022/04/05 05:04:42;;;;;;;9.37;8.47;;;;;;;5.67;100.00;99765.66;5054099;28;20240;-58
2022/04/05 05:07:08;;;;;;;9.27;8.30;;;;;;;5.69;100.00;99760.50;5058093;28;20666;-58
2022/04/05 05:09:36;;;;;;;8.90;8.03;;;;;;;5.64;100.00;99763.06;5057838;28;20275;-58
2022/04/05 05:12:02;;;;;;;9.67;8.67;;;;;;;5.63;100.00;99769.91;5060536;28;20193;-58
2022/04/05 05:14:27;;;;;;;9.70;8.77;;;;;;;5.63;100.00;99776.75;5060251;28;20209;-58
2022/04/05 05:16:54;;;;;;;9.80;8.80;;;;;;;5.57;100.00;99787.88;5063248;28;20260;-57
2022/04/05 05:19:22;;;;;;;9.83;8.83;;;;;;;5.54;100.00;99785.28;5062220;28;20260;-58
2022/04/05 05:21:48;;;;;;;10.00;9.00;;;;;;;5.52;100.00;99771.59;5059068;28;20201;-58
2022/04/05 05:24:13;;;;;;;9.83;8.87;;;;;;;5.56;100.00;99775.00;5058963;28;20321;-58
2022/04/05 05:26:39;;;;;;;9.60;8.70;;;;;;;5.53;100.00;99765.59;5059142;28;20251;-59
2022/04/05 05:29:04;;;;;;;9.67;8.67;;;;;;;5.49;100.00;99767.31;5058691;28;20252;-58
2022/04/05 05:31:29;;;;;;;9.43;8.30;;;;;;;5.52;100.00;99766.47;5057583;28;20197;-57
2022/04/05 05:33:55;;;;;;;10.33;9.30;;;;;;;5.49;100.00;99769.00;5075008;28;20658;-58
2022/04/05 05:36:22;;;;;;;10.43;8.60;;;;;;;5.46;100.00;99771.56;5054776;28;22083;-58
2022/04/05 05:38:47;;;;;;;10.30;9.30;;;;;;;5.49;100.00;99771.56;5056448;28;20241;-58
2022/04/05 05:41:13;;;;;;;9.17;8.30;;;;;;;5.52;100.00;99779.28;5069062;28;20178;-57
2022/04/05 05:43:38;;;;;;;10.17;9.17;;;;;;;5.48;100.00;99777.56;5058978;28;20197;-58
2022/04/05 05:46:06;;;;;;;9.90;8.90;;;;;;;5.49;100.00;99772.44;5056482;28;20192;-57
2022/04/05 05:48:32;;;;;;;9.33;8.43;;;;;;;5.49;100.00;99777.59;5053235;28;20218;-57
2022/04/05 05:50:58;;;;;;;9.73;8.83;;;;;;;5.49;100.00;99785.28;5059690;28;20178;-57
2022/04/05 05:53:24;;;;;;;10.13;9.13;;;;;;;5.49;100.00;99792.09;5059943;28;20549;-57
2022/04/05 05:55:49;;;;;;;9.60;8.70;;;;;;;5.53;100.00;99804.09;5059208;28;20241;-58
2022/04/05 05:58:15;;;;;;;8.43;7.63;;;;;;;5.52;100.00;99804.97;5064466;28;20244;-58
2022/04/05 06:00:40;;;;;;;9.60;8.60;;;;;;;5.53;100.00;99809.25;5071208;28;20275;-57
2022/04/05 06:03:05;;;;;;;9.37;8.47;;;;;;;5.53;100.00;99804.09;5069625;28;20650;-56
2022/04/05 06:05:34;;;;;;;8.80;8.00;;;;;;;5.56;100.00;99808.38;5065202;28;20735;-58
2022/04/05 06:08:00;;;;;;;9.10;8.20;;;;;;;5.60;100.00;99804.97;5053552;28;20202;-57
2022/04/05 06:10:26;;;;;;;9.43;8.50;;;;;;;5.62;100.00;99798.16;5050387;28;20188;-57
2022/04/05 06:12:52;;;;;;;9.87;8.53;;;;;;;5.65;100.00;99795.59;5059213;28;20205;-57
2022/04/05 06:15:19;;;;;;;8.83;8.03;;;;;;;5.70;100.00;99795.63;5078486;28;20221;-58
2022/04/05 06:17:46;;;;;;;8.90;7.83;;;;;;;5.75;100.00;99801.59;5059770;28;20192;-57
2022/04/05 06:20:14;;;;;;;9.57;8.20;;;;;;;5.78;100.00;99802.47;5058796;28;20301;-56
2022/04/05 06:22:41;;;;;;;8.63;7.80;;;;;;;5.81;100.00;99804.19;5055783;28;20191;-58
2022/04/05 06:25:08;;;;;;;8.67;7.87;;;;;;;5.90;100.00;99805.94;5057577;28;20192;-57
2022/04/05 06:27:34;;;;;;;8.97;8.13;;;;;;;5.97;100.00;99806.81;5055043;28;20214;-57
2022/04/05 06:30:00;;;;;;;9.47;8.27;;;;;;;6.01;100.00;99811.13;5051485;28;20223;-58
2022/04/05 06:32:25;;;;;;;9.70;8.20;;;;;;;6.02;100.00;99810.28;5058410;28;20187;-57
2022/04/05 06:34:51;;;;;;;9.13;8.23;;;;;;;6.05;100.00;99810.28;5058334;28;20210;-57
2022/04/05 06:37:17;;;;;;;8.77;7.93;;;;;;;6.08;100.00;99813.72;5057822;28;20219;-58
2022/04/05 06:39:42;;;;;;;8.90;8.10;;;;;;;6.10;100.00;99806.88;5053950;28;20636;-58
2022/04/05 06:42:08;;;;;;;8.00;7.27;;;;;;;6.13;100.00;99810.28;5054332;28;20202;-58
2022/04/05 06:44:33;;;;;;;8.30;6.77;;;;;;;6.18;100.00;99814.59;5058330;28;20201;-58
2022/04/05 06:46:58;;;;;;;8.17;7.20;;;;;;;6.24;100.00;99808.59;5056851;28;20191;-57
2022/04/05 06:49:24;;;;;;;8.63;7.80;;;;;;;6.30;100.00;99812.88;5056992;28;20247;-57
2022/04/05 06:51:49;;;;;;;8.10;7.30;;;;;;;6.38;100.00;99819.75;5057940;28;20225;-60
2022/04/05 06:54:14;;;;;;;8.90;7.87;;;;;;;6.44;100.00;99813.75;5055051;28;20215;-58
2022/04/05 06:56:40;;;;;;;8.47;7.67;;;;;;;6.52;100.00;99808.59;5056687;28;20194;-57
2022/04/05 06:59:05;;;;;;;9.47;8.47;;;;;;;6.63;99.60;99804.31;5058687;28;20591;-58
2022/04/05 07:01:32;;;;;;;8.43;7.30;;;;;;;6.71;98.55;99802.59;5054114;28;20187;-58
2022/04/05 07:03:58;;;;;;;8.60;7.67;;;;;;;6.81;98.52;99800.84;5066776;28;20195;-60
2022/04/05 07:06:24;;;;;;;8.03;7.23;;;;;;;6.90;97.90;99794.84;5060980;28;20193;-58
2022/04/05 07:08:50;;;;;;;7.93;7.17;;;;;;;6.95;97.25;99790.56;5059699;28;20225;-57
2022/04/05 07:11:15;;;;;;;9.17;7.37;;;;;;;7.01;96.40;99795.69;5056475;28;20662;-60
2022/04/05 07:13:41;;;;;;;7.77;6.97;;;;;;;7.13;96.60;99791.38;5060096;28;20196;-60
2022/04/05 07:16:06;;;;;;;7.23;6.53;;;;;;;7.25;95.80;99786.19;5062609;28;20202;-57
2022/04/05 07:18:32;;;;;;;7.77;6.97;;;;;;;7.39;94.23;99788.72;5061307;28;20624;-58
2022/04/05 07:20:57;;;;;;;7.67;6.87;;;;;;;7.53;93.75;99796.38;5056562;28;20204;-58
2022/04/05 07:23:23;;;;;;;8.43;6.93;;;;;;;7.75;92.41;99797.13;5056684;28;20189;-58
2022/04/05 07:25:48;;;;;;;7.50;6.80;;;;;;;7.83;91.97;99802.22;5059562;28;20188;-57
2022/04/05 07:28:13;;;;;;;7.17;6.47;;;;;;;7.80;91.63;99806.53;5075710;28;21588;-58
2022/04/05 07:30:39;;;;;;;7.87;7.10;;;;;;;7.80;91.72;99802.22;5062851;28;20187;-58
2022/04/05 07:33:04;;;;;;;8.13;7.33;;;;;;;7.87;91.59;99810.78;5057640;28;20191;-58
2022/04/05 07:35:30;;;;;;;7.80;6.87;;;;;;;7.93;91.10;99803.91;5058821;28;20241;-57
2022/04/05 07:37:55;;;;;;;7.30;6.60;;;;;;;7.99;90.36;99809.88;5055576;28;20196;-58
2022/04/05 07:40:21;;;;;;;8.00;7.20;;;;;;;7.99;90.33;99815.03;5053313;28;20184;-58
2022/04/05 07:42:47;;;;;;;7.57;6.87;;;;;;;7.93;90.44;99815.91;5054901;28;20200;-58
2022/04/05 07:45:14;;;;;;;8.17;7.37;;;;;;;7.94;90.27;99804.75;5054416;28;20272;-58
2022/04/05 07:47:39;;;;;;;8.67;6.80;;;;;;;7.91;90.59;99795.31;5056000;28;20243;-58
2022/04/05 07:50:06;;;;;;;7.20;6.50;;;;;;;7.90;91.54;99796.19;5057530;28;20219;-57
2022/04/05 07:52:32;;;;;;;8.07;6.87;;;;;;;7.91;91.84;99792.75;5060026;28;20682;-58
2022/04/05 07:54:57;;;;;;;7.53;6.83;;;;;;;7.88;91.94;99810.78;5061284;28;20229;-58
2022/04/05 07:57:23;;;;;;;9.87;7.70;;;;;;;7.81;92.90;99797.97;5063578;28;20192;-58
2022/04/05 07:59:48;;;;;;;7.37;6.67;;;;;;;7.81;93.44;99805.69;5062290;28;20267;-57
2022/04/05 08:02:13;;;;;;;7.90;6.80;;;;;;;7.77;93.53;99807.44;5061007;28;20192;-58
2022/04/05 08:04:39;;;;;;;7.30;6.60;;;;;;;7.82;93.83;99808.25;5062703;28;20789;-57
2022/04/05 08:07:06;;;;;;;7.53;6.83;;;;;;;7.90;93.68;99811.66;5063266;28;20211;-58
2022/04/05 08:09:31;;;;;;;7.93;7.07;;;;;;;7.99;92.97;99815.91;5065328;28;20692;-58
2022/04/05 08:11:57;;;;;;;7.83;7.03;;;;;;;8.05;93.44;99815.84;5058792;28;20227;-58
2022/04/05 08:14:27;;;;;;;8.23;7.23;;;;;;;8.14;93.09;99822.66;5063385;28;20253;-58
2022/04/05 08:16:54;;;;;;;7.60;6.90;;;;;;;8.19;92.60;99822.63;5057940;28;20189;-59
2022/04/05 08:19:19;;;;;;;7.77;6.93;;;;;;;8.19;92.44;99822.63;5060198;28;20213;-58
2022/04/05 08:21:45;;;;;;;7.80;6.97;;;;;;;8.13;92.38;99817.53;5063785;28;20193;-59
2022/04/05 08:24:10;;;;;;;9.53;7.20;;;;;;;8.07;92.49;99813.28;5065456;28;20195;-57
2022/04/05 08:26:35;;;;;;;7.43;6.73;;;;;;;7.99;92.68;99815.91;5065784;28;20264;-59
2022/04/05 08:29:01;;;;;;;8.33;7.53;;;;;;;7.98;92.57;99815.88;5066165;28;20354;-58
2022/04/05 08:31:26;;;;;;;8.17;6.67;;;;;;;7.91;92.40;99810.78;5065212;28;20200;-57
2022/04/05 08:33:52;;;;;;;8.23;7.43;;;;;;;7.87;92.82;99821.97;5065391;28;20284;-58
2022/04/05 08:36:17;;;;;;;9.27;7.37;;;;;;;7.83;92.63;99816.84;5064361;28;20214;-59
2022/04/05 08:38:43;;;;;;;10.23;7.67;;;;;;;7.79;92.70;99821.13;5065976;28;20657;-58
2022/04/05 08:41:10;;;;;;;7.57;6.80;;;;;;;7.77;93.08;99822.88;5068137;28;20185;-59
2022/04/05 08:43:37;;;;;;;7.97;7.03;;;;;;;7.74;93.06;99821.16;5064985;28;20199;-58
2022/04/05 08:46:05;;;;;;;7.80;7.00;;;;;;;7.72;93.13;99825.47;5063967;28;20192;-58
2022/04/05 08:48:34;;;;;;;7.53;6.57;;;;;;;7.69;93.13;99832.34;5062292;28;20217;-58
2022/04/05 08:51:00;;;;;;;7.83;6.97;;;;;;;7.70;92.93;99834.94;5066030;28;20668;-57
2022/04/05 08:53:26;;;;;;;7.27;6.57;;;;;;;7.70;92.94;99827.22;5066206;28;20193;-57
2022/04/05 08:55:51;;;;;;;6.83;6.23;;;;;;;7.73;92.81;99827.16;5068387;28;20233;-57
2022/04/05 08:58:17;;;;;;;8.50;7.60;;;;;;;7.82;92.58;99826.28;5069011;28;20204;-58
2022/04/05 09:00:43;;;;;;;9.40;7.30;;;;;;;7.90;91.08;99819.38;5079687;28;20270;-59
2022/04/05 09:03:09;;;;;;;7.80;7.10;;;;;;;7.96;91.18;99822.75;5067059;28;20189;-58
2022/04/05 09:05:38;;;;;;;7.70;6.87;;;;;;;8.02;90.66;99828.72;5061548;28;20602;-58
2022/04/05 09:08:24;;;;;;;7.50;6.70;;;;;;;8.07;90.30;99823.56;5064055;28;20193;-57
2022/04/05 09:10:54;;;;;;;8.17;7.13;;;;;;;8.09;90.34;99830.44;5064888;28;20180;-57
2022/04/05 09:13:25;;;;;;;7.67;6.80;;;;;;;8.11;90.23;99835.56;5075878;28;20186;-58
2022/04/05 09:15:54;;;;;;;8.30;7.13;;;;;;;8.07;90.59;99834.72;5065231;28;20260;-57
2022/04/05 09:18:46;;;;;;;7.43;6.70;;;;;;;8.16;90.56;99831.25;5060674;28;20205;-59
2022/04/05 09:21:14;;;;;;;7.40;6.70;;;;;;;8.21;90.50;99836.34;5060677;28;20202;-57
2022/04/05 09:23:42;;;;;;;8.50;7.00;;;;;;;8.26;90.51;99826.88;5063846;28;20234;-57
2022/04/05 09:26:13;;;;;;;7.50;6.80;;;;;;;8.32;90.11;99828.56;5065097;28;20189;-58
2022/04/05 09:28:41;;;;;;;7.33;6.60;;;;;;;8.37;90.08;99826.81;5065825;28;20331;-58
2022/04/05 09:31:15;;;;;;;8.37;6.23;;;;;;;8.45;89.75;99830.19;5066466;28;20190;-57
2022/04/05 09:34:00;;;;;;;6.70;6.07;;;;;;;8.52;89.53;99833.59;5066264;28;20190;-59
2022/04/05 09:36:34;;;;;;;8.90;6.73;;;;;;;8.61;89.43;99832.66;5067275;28;20196;-57
2022/04/05 09:39:16;;;;;;;6.53;5.90;;;;;;;8.66;89.68;99836.06;5063167;28;20579;-57
2022/04/05 09:41:41;;;;;;;7.80;6.67;;;;;;;8.75;89.80;99835.16;5065922;28;20939;-57
2022/04/05 09:44:07;;;;;;;6.93;6.13;;;;;;;8.89;89.22;99838.44;5077591;28;20182;-57
2022/04/05 09:46:35;;;;;;;6.90;6.30;;;;;;;8.93;88.86;99839.28;5064239;28;20193;-59
2022/04/05 09:49:08;;;;;;;8.73;6.63;;;;;;;9.00;88.47;99839.19;5065461;28;20228;-58
2022/04/05 09:51:45;;;;;;;7.73;6.57;;;;;;;9.02;87.92;99835.75;5063728;28;20198;-57
2022/04/05 09:54:27;;;;;;;8.37;6.80;;;;;;;8.95;86.18;99840.13;5063455;28;20243;-58
2022/04/05 09:56:59;;;;;;;7.23;6.53;;;;;;;8.90;86.50;99845.31;5073324;28;20251;-58
2022/04/05 09:59:24;;;;;;;7.23;6.53;;;;;;;8.89;86.78;99851.34;5057401;28;20212;-59
2022/04/05 10:01:52;;;;;;;6.50;5.90;;;;;;;8.91;86.75;99843.59;5064177;28;20555;-56
2022/04/05 10:04:18;;;;;;;7.80;7.00;;;;;;;8.96;85.98;99844.41;5081093;28;20193;-58
2022/04/05 10:06:48;;;;;;;7.73;6.93;;;;;;;9.04;85.86;99846.91;5068525;28;20185;-58
2022/04/05 10:09:16;;;;;;;7.83;7.10;;;;;;;9.09;85.42;99850.28;5061928;28;20209;-61
2022/04/05 10:11:43;;;;;;;7.47;6.77;;;;;;;9.07;85.76;99847.75;5069792;28;20545;-58
2022/04/05 10:14:20;;;;;;;6.97;6.27;;;;;;;9.18;85.88;99852.81;5073356;28;20236;-60
2022/04/05 10:16:45;;;;;;;7.73;6.93;;;;;;;9.28;85.42;99845.81;5065213;28;20752;-57
2022/04/05 10:19:11;;;;;;;7.00;6.30;;;;;;;9.35;85.25;99844.84;5063281;28;20305;-58
2022/04/05 10:21:39;;;;;;;7.40;6.70;;;;;;;9.40;84.95;99840.50;5064158;28;20209;-60
2022/04/05 10:24:06;;;;;;;9.53;6.80;;;;;;;9.39;84.54;99851.72;5062912;28;20183;-57
2022/04/05 10:26:33;;;;;;;7.87;6.53;;;;;;;9.38;84.40;99839.66;5067310;28;20186;-58
2022/04/05 10:29:02;;;;;;;7.70;6.90;;;;;;;9.29;84.94;99853.53;5059885;28;20213;-59
2022/04/05 10:31:52;;;;;;;7.27;6.43;;;;;;;9.28;85.51;99849.25;5071485;28;20227;-64
2022/04/05 10:34:23;;;;;;;7.27;6.57;;;;;;;9.36;84.92;99854.31;5072280;28;20219;-59
2022/04/05 10:37:18;;;;;;;8.33;6.47;;;;;;;9.39;83.99;99856.88;5059788;28;20272;-58
2022/04/05 10:40:09;;;;;;;7.73;6.97;;;;;;;9.37;84.37;99853.44;5061174;28;20277;-58
2022/04/05 10:42:40;;;;;;;7.87;7.07;;;;;;;9.40;84.39;99843.09;5059059;28;20652;-59
2022/04/05 10:45:16;;;;;;;8.87;6.97;;;;;;;9.38;84.76;99843.97;5060041;28;20293;-58
2022/04/05 10:48:00;;;;;;;7.30;6.60;;;;;;;9.37;84.87;99844.88;5060730;28;20233;-60
2022/04/05 10:50:27;;;;;;;7.57;6.87;;;;;;;9.42;84.77;99833.59;5070912;28;20895;-57
2022/04/05 10:53:14;;;;;;;7.30;6.60;;;;;;;9.44;84.65;99839.63;5064436;28;20200;-58
2022/04/05 10:56:05;;;;;;;7.60;6.80;;;;;;;9.46;84.24;99834.41;5061379;28;20305;-59
2022/04/05 10:58:38;;;;;;;7.10;6.40;;;;;;;9.57;84.36;99837.72;5057192;28;20685;-58
2022/04/05 11:01:18;;;;;;;7.97;6.90;;;;;;;9.62;84.13;99853.16;5055422;28;20197;-60
2022/04/05 11:04:16;;;;;;;7.50;6.43;;;;;;;9.59;84.44;99838.56;5073985;28;20189;-57
2022/04/05 11:07:05;;;;;;;7.60;6.83;;;;;;;9.59;84.33;99835.97;5054582;28;20198;-60
2022/04/05 11:09:48;;;;;;;7.57;6.77;;;;;;;9.57;84.83;99835.13;5056445;28;20218;-56
2022/04/05 11:12:28;;;;;;;11.23;7.27;;;;;;;9.55;84.53;99831.72;5057906;28;20201;-58
2022/04/05 11:15:08;;;;;;;8.00;7.20;;;;;;;9.61;84.83;99838.53;5056117;28;20213;-57
2022/04/05 11:17:35;;;;;;;7.87;7.07;;;;;;;9.66;85.83;99838.50;5055190;28;20189;-58
2022/04/05 11:20:01;;;;;;;7.20;6.50;;;;;;;9.69;85.68;99826.38;5062505;28;20202;-58
2022/04/05 11:22:28;;;;;;;6.70;6.00;;;;;;;9.70;85.84;99830.69;5067954;28;20243;-57
2022/04/05 11:25:06;;;;;;;9.93;6.60;;;;;;;9.76;85.76;99843.50;5061726;28;20281;-58
2022/04/05 11:27:45;;;;;;;7.67;6.50;;;;;;;9.90;85.64;99837.31;5058328;28;20200;-58
2022/04/05 11:30:28;;;;;;;6.87;6.13;;;;;;;10.00;86.21;99830.28;5061754;28;20217;-58
2022/04/05 11:33:09;;;;;;;8.00;5.90;;;;;;;10.12;86.72;99837.00;5051837;28;20194;-58
2022/04/05 11:35:50;;;;;;;8.23;6.50;;;;;;;10.08;86.63;99828.44;5067671;28;20305;-58
2022/04/05 11:38:18;;;;;;;8.07;7.23;;;;;;;10.21;86.15;99823.94;5064429;28;20205;-58
2022/04/05 11:40:49;;;;;;;8.97;7.00;;;;;;;10.35;85.28;99828.91;5061591;28;20196;-59